createdAt,value
2022-12-23T00:01:25.336Z,27.05
2022-12-23T00:03:58.914Z,27.20
2022-12-23T00:06:27.254Z,25.08
2022-12-23T00:08:58.821Z,29.80
2022-12-23T00:11:28.450Z,24.83
2022-12-23T00:14:22.360Z,19.45
2022-12-23T00:16:51.641Z,21.15
2022-12-23T00:19:21.747Z,29.10
2022-12-23T00:21:49.946Z,24.25
2022-12-23T00:24:18.377Z,22.98
2022-12-23T00:26:46.580Z,25.67
2022-12-23T00:29:14.892Z,21.27
2022-12-23T00:31:43.206Z,20.80
2022-12-23T00:34:13.139Z,22.95
2022-12-23T00:36:42.743Z,23.17
2022-12-23T00:39:30.644Z,20.17
2022-12-23T00:42:16.626Z,20.08
2022-12-23T00:44:45.155Z,21.33
2022-12-23T00:47:33.302Z,23.45
2022-12-23T00:50:00.404Z,21.40
2022-12-23T00:52:29.896Z,22.58
2022-12-23T00:54:58.155Z,20.52
2022-12-23T00:57:26.255Z,20.58
2022-12-23T00:59:54.424Z,20.73
2022-12-23T01:02:40.071Z,19.00
2022-12-23T01:08:17.471Z,16.33
2022-12-23T01:10:45.577Z,16.17
2022-12-23T01:13:13.836Z,15.75
2022-12-23T01:15:41.944Z,13.60
2022-12-23T01:18:10.047Z,15.23
2022-12-23T01:20:39.210Z,13.25
2022-12-23T01:23:07.698Z,14.13
2022-12-23T01:25:37.257Z,14.50
2022-12-23T01:28:05.678Z,13.90
2022-12-23T01:30:33.877Z,13.07
2022-12-23T01:33:02.102Z,14.15
2022-12-23T01:35:30.338Z,13.18
2022-12-23T01:37:58.412Z,13.48
2022-12-23T01:40:26.618Z,13.07
2022-12-23T01:42:55.233Z,11.95
2022-12-23T01:45:29.033Z,11.38
2022-12-23T01:48:00.585Z,13.43
2022-12-23T01:50:32.921Z,12.80
2022-12-23T01:53:08.100Z,12.40
2022-12-23T01:55:40.216Z,11.48
2022-12-23T01:58:13.027Z,12.15
2022-12-23T02:01:00.506Z,12.63
2022-12-23T02:03:44.497Z,11.77
2022-12-23T02:06:36.056Z,10.90
2022-12-23T02:09:19.593Z,11.40
2022-12-23T02:12:21.671Z,11.68
2022-12-23T02:15:25.105Z,11.75
2022-12-23T02:18:06.963Z,11.50
2022-12-23T02:21:00.801Z,11.77
2022-12-23T02:23:52.044Z,10.68
2022-12-23T02:27:04.905Z,11.98
2022-12-23T02:30:15.075Z,11.88
2022-12-23T02:33:07.270Z,11.88
2022-12-23T02:35:42.116Z,11.50
2022-12-23T02:38:14.577Z,12.18
2022-12-23T02:40:51.411Z,12.35
2022-12-23T02:43:26.545Z,12.55
2022-12-23T02:45:59.273Z,11.55
2022-12-23T02:48:36.317Z,11.65
2022-12-23T02:51:07.600Z,12.10
2022-12-23T02:53:39.384Z,13.40
2022-12-23T02:56:10.755Z,12.35
2022-12-23T02:58:45.573Z,13.13
2022-12-23T03:01:17.276Z,13.15
2022-12-23T03:03:48.866Z,13.20
2022-12-23T03:06:23.537Z,12.85
2022-12-23T03:08:56.619Z,12.25
2022-12-23T03:11:40.240Z,11.07
2022-12-23T03:14:30.405Z,12.15
2022-12-23T03:17:05.431Z,11.82
2022-12-23T03:19:41.458Z,11.50
2022-12-23T03:22:18.276Z,9.75
2022-12-23T03:24:55.562Z,9.65
2022-12-23T03:27:28.827Z,10.75
2022-12-23T03:30:01.690Z,10.75
2022-12-23T03:32:34.374Z,9.82
2022-12-23T03:35:08.873Z,10.27
2022-12-23T03:37:39.960Z,8.63
2022-12-23T03:40:14.870Z,8.73
2022-12-23T03:42:46.661Z,6.70
2022-12-23T03:45:38.154Z,4.28
2022-12-23T03:48:12.919Z,3.65
2022-12-23T03:50:44.481Z,3.70
2022-12-23T03:53:17.863Z,2.88
2022-12-23T03:55:52.800Z,2.47
2022-12-23T03:58:29.875Z,2.00
2022-12-23T04:01:05.543Z,2.00
2022-12-23T04:03:41.083Z,1.90
2022-12-23T04:06:16.025Z,1.50
2022-12-23T04:08:46.050Z,1.30
2022-12-23T04:11:14.432Z,1.58
2022-12-23T04:13:42.775Z,1.45
2022-12-23T04:16:11.648Z,1.38
2022-12-23T04:18:39.925Z,1.25
2022-12-23T04:21:08.071Z,1.25
2022-12-23T04:23:37.730Z,1.30
2022-12-23T04:26:06.082Z,1.20
2022-12-23T04:28:34.254Z,2.85
2022-12-23T04:31:02.493Z,1.13
2022-12-23T04:33:30.577Z,1.35
2022-12-23T04:36:01.426Z,1.08
2022-12-23T04:38:29.532Z,1.20
2022-12-23T04:40:59.123Z,1.30
2022-12-23T04:43:27.393Z,1.55
2022-12-23T04:45:55.474Z,1.75
2022-12-23T04:48:23.667Z,1.42
2022-12-23T04:50:51.718Z,1.70
2022-12-23T04:53:19.883Z,1.40
2022-12-23T04:55:51.497Z,1.38
2022-12-23T04:58:22.254Z,1.17
2022-12-23T05:00:50.395Z,1.27
2022-12-23T05:03:18.793Z,0.90
2022-12-23T05:05:46.991Z,1.27
2022-12-23T05:08:15.543Z,1.15
2022-12-23T05:10:43.622Z,0.98
2022-12-23T05:13:11.713Z,1.10
2022-12-23T05:15:41.225Z,1.80
2022-12-23T05:18:09.431Z,1.42
2022-12-23T05:20:37.618Z,1.30
2022-12-23T05:23:05.762Z,2.70
2022-12-23T05:25:34.819Z,2.55
2022-12-23T05:28:03.008Z,1.63
2022-12-23T05:30:31.293Z,1.38
2022-12-23T05:33:00.852Z,1.05
2022-12-23T05:35:29.880Z,1.15
2022-12-23T05:37:58.934Z,1.08
2022-12-23T05:40:29.366Z,1.50
2022-12-23T05:45:26.487Z,1.05
2022-12-23T05:47:54.756Z,1.13
2022-12-23T05:50:24.319Z,1.30
2022-12-23T05:52:52.468Z,1.13
2022-12-23T05:55:20.653Z,1.42
2022-12-23T05:57:48.766Z,1.88
2022-12-23T06:00:17.727Z,1.20
2022-12-23T06:02:51.755Z,1.92
2022-12-23T06:05:22.385Z,1.88
2022-12-23T06:07:52.237Z,3.05
2022-12-23T06:10:20.651Z,3.20
2022-12-23T06:12:48.870Z,1.55
2022-12-23T06:15:17.211Z,1.48
2022-12-23T06:17:45.449Z,2.10
2022-12-23T06:20:20.464Z,1.10
2022-12-23T06:22:49.594Z,1.13
2022-12-23T06:25:19.214Z,1.30
2022-12-23T06:27:47.511Z,1.10
2022-12-23T06:30:16.361Z,0.90
2022-12-23T06:32:44.428Z,1.30
2022-12-23T06:35:12.625Z,1.42
2022-12-23T06:37:41.470Z,1.40
2022-12-23T06:40:11.035Z,1.38
2022-12-23T06:42:40.561Z,1.30
2022-12-23T06:45:09.967Z,1.23
2022-12-23T06:47:38.237Z,1.42
2022-12-23T06:50:07.262Z,1.45
2022-12-23T06:52:35.528Z,1.23
2022-12-23T06:55:03.739Z,2.22
2022-12-23T06:57:31.841Z,1.05
2022-12-23T07:00:01.293Z,2.38
2022-12-23T07:02:29.548Z,1.30
2022-12-23T07:04:57.823Z,1.75
2022-12-23T07:07:26.146Z,1.30
2022-12-23T07:09:54.356Z,1.10
2022-12-23T07:12:22.523Z,1.38
2022-12-23T07:14:50.833Z,1.70
2022-12-23T07:17:20.433Z,1.85
2022-12-23T07:19:48.525Z,1.63
2022-12-23T07:22:16.614Z,1.52
2022-12-23T07:24:44.723Z,2.70
2022-12-23T07:27:12.993Z,1.98
2022-12-23T07:29:41.291Z,1.75
2022-12-23T07:32:09.525Z,1.15
2022-12-23T07:34:39.009Z,1.60
2022-12-23T07:37:07.158Z,2.20
2022-12-23T07:39:36.643Z,1.30
2022-12-23T07:42:33.884Z,1.25
2022-12-23T07:44:53.379Z,1.42
2022-12-23T07:47:21.558Z,1.90
2022-12-23T07:49:51.195Z,1.38
2022-12-23T07:52:19.384Z,1.80
2022-12-23T07:54:47.608Z,2.60
2022-12-23T07:57:15.686Z,2.30
2022-12-23T07:59:43.769Z,2.25
2022-12-23T08:02:12.485Z,2.97
2022-12-23T08:04:45.806Z,1.55
2022-12-23T08:07:16.056Z,1.67
2022-12-23T08:09:44.230Z,1.63
2022-12-23T08:12:12.417Z,1.95
2022-12-23T08:14:40.569Z,1.80
2022-12-23T08:17:08.779Z,1.98
2022-12-23T08:19:37.213Z,3.13
2022-12-23T08:22:05.415Z,3.13
2022-12-23T08:24:35.042Z,2.60
2022-12-23T08:27:03.256Z,1.98
2022-12-23T08:29:36.037Z,1.70
2022-12-23T08:32:04.738Z,2.22
2022-12-23T08:34:32.797Z,1.88
2022-12-23T08:37:00.949Z,2.03
2022-12-23T08:39:29.392Z,1.85
2022-12-23T08:41:59.066Z,1.33
2022-12-23T08:44:28.272Z,2.08
2022-12-23T08:46:56.847Z,5.07
2022-12-23T08:49:24.971Z,2.00
2022-12-23T08:51:53.279Z,2.20
2022-12-23T08:54:22.281Z,2.00
2022-12-23T08:56:50.616Z,1.65
2022-12-23T08:59:20.252Z,3.35
2022-12-23T09:01:49.147Z,1.80
2022-12-23T09:04:17.452Z,1.73
2022-12-23T09:06:46.920Z,2.63
2022-12-23T09:09:16.565Z,3.03
2022-12-23T09:11:45.455Z,2.03
2022-12-23T09:14:13.636Z,2.00
2022-12-23T09:16:43.263Z,1.35
2022-12-23T09:19:11.437Z,1.70
2022-12-23T09:21:39.648Z,2.88
2022-12-23T09:24:08.098Z,2.08
2022-12-23T09:26:36.193Z,2.28
2022-12-23T09:29:04.365Z,1.95
2022-12-23T09:31:37.100Z,1.65
2022-12-23T09:34:07.489Z,2.00
2022-12-23T09:36:35.676Z,5.22
2022-12-23T09:39:04.448Z,3.97
2022-12-23T09:41:48.739Z,2.28
2022-12-23T09:44:38.585Z,1.83
2022-12-23T09:47:12.142Z,1.33
2022-12-23T09:49:48.575Z,3.10
2022-12-23T09:52:23.624Z,1.30
2022-12-23T09:54:55.154Z,3.38
2022-12-23T09:57:28.861Z,1.75
2022-12-23T10:00:05.737Z,1.80
2022-12-23T10:02:44.264Z,1.98
2022-12-23T10:05:26.326Z,1.80
2022-12-23T10:07:59.855Z,1.33
2022-12-23T10:10:36.094Z,1.50
2022-12-23T10:13:07.668Z,1.65
2022-12-23T10:18:13.582Z,2.80
2022-12-23T10:20:48.612Z,3.10
2022-12-23T10:23:20.909Z,3.60
2022-12-23T10:25:52.775Z,1.80
2022-12-23T10:28:21.139Z,2.33
2022-12-23T10:31:39.280Z,2.38
2022-12-23T10:33:57.646Z,2.67
2022-12-23T10:36:40.145Z,3.33
2022-12-23T10:39:20.886Z,2.42
2022-12-23T10:41:57.206Z,2.50
2022-12-23T10:44:42.267Z,2.00
2022-12-23T10:47:25.979Z,2.60
2022-12-23T10:50:09.616Z,2.63
2022-12-23T10:52:42.804Z,3.08
2022-12-23T10:55:28.536Z,2.40
2022-12-23T10:58:06.887Z,2.50
2022-12-23T11:00:40.251Z,3.72
2022-12-23T11:03:18.632Z,2.10
2022-12-23T11:05:50.089Z,2.58
2022-12-23T11:08:20.009Z,2.22
2022-12-23T11:10:49.119Z,2.22
2022-12-23T11:13:35.681Z,2.00
2022-12-23T11:16:20.437Z,2.75
2022-12-23T11:19:01.373Z,2.00
2022-12-23T11:21:31.362Z,2.25
2022-12-23T11:24:17.974Z,1.90
2022-12-23T11:26:48.770Z,1.90
2022-12-23T11:29:24.449Z,1.83
2022-12-23T11:31:53.236Z,4.20
2022-12-23T11:34:24.010Z,1.70
2022-12-23T11:37:01.804Z,2.15
2022-12-23T11:39:38.754Z,1.92
2022-12-23T11:42:16.726Z,2.67
2022-12-23T11:44:49.135Z,2.10
2022-12-23T11:47:30.975Z,2.47
2022-12-23T11:50:01.289Z,2.30
2022-12-23T11:52:31.255Z,2.75
2022-12-23T11:55:02.354Z,3.20
2022-12-23T11:57:39.397Z,2.45
2022-12-23T12:00:10.601Z,2.50
2022-12-23T12:02:44.335Z,3.28
2022-12-23T12:05:22.991Z,3.03
2022-12-23T12:07:53.324Z,3.03
2022-12-23T12:10:28.393Z,2.65
2022-12-23T12:12:59.555Z,5.55
2022-12-23T12:15:35.848Z,3.10
2022-12-23T12:18:08.238Z,4.28
2022-12-23T12:20:40.141Z,4.03
2022-12-23T12:23:14.339Z,5.95
2022-12-23T12:25:48.852Z,7.53
2022-12-23T12:28:23.443Z,2.55
2022-12-23T12:30:57.837Z,2.65
2022-12-23T12:33:32.842Z,1.90
2022-12-23T12:36:12.520Z,2.50
2022-12-23T12:38:41.536Z,3.47
2022-12-23T12:41:17.941Z,3.03
2022-12-23T12:43:53.063Z,2.50
2022-12-23T12:46:32.104Z,3.30
2022-12-23T12:49:05.176Z,2.08
2022-12-23T12:51:40.053Z,2.70
2022-12-23T12:54:17.524Z,3.38
2022-12-23T12:56:50.538Z,3.45
2022-12-23T12:59:21.024Z,3.67
2022-12-23T13:02:21.034Z,2.22
2022-12-23T13:05:10.754Z,3.17
2022-12-23T13:07:48.351Z,2.08
2022-12-23T13:10:33.768Z,2.15
2022-12-23T13:13:10.922Z,1.58
2022-12-23T13:15:49.490Z,1.60
2022-12-23T13:18:29.517Z,1.90
2022-12-23T13:21:03.349Z,3.17
2022-12-23T13:23:44.404Z,1.42
2022-12-23T13:26:23.342Z,1.92
2022-12-23T13:29:04.591Z,1.60
2022-12-23T13:31:44.500Z,1.40
2022-12-23T13:34:26.805Z,1.52
2022-12-23T13:37:02.229Z,1.65
2022-12-23T13:39:44.920Z,1.65
2022-12-23T13:42:20.049Z,1.40
2022-12-23T13:44:49.582Z,1.58
2022-12-23T13:47:30.785Z,1.83
2022-12-23T13:50:07.284Z,1.60
2022-12-23T13:52:48.433Z,2.47
2022-12-23T13:55:30.275Z,1.80
2022-12-23T13:58:04.686Z,2.03
2022-12-23T14:00:35.944Z,1.88
2022-12-23T14:03:23.728Z,2.17
2022-12-23T14:05:53.757Z,4.20
2022-12-23T14:08:28.467Z,3.17
2022-12-23T14:11:00.075Z,2.80
2022-12-23T14:13:31.321Z,2.10
2022-12-23T14:16:21.114Z,2.53
2022-12-23T14:19:13.270Z,2.42
2022-12-23T14:21:51.632Z,2.33
2022-12-23T14:24:52.998Z,2.65
2022-12-23T14:27:42.923Z,3.25
2022-12-23T14:30:16.522Z,3.28
2022-12-23T14:32:49.910Z,2.70
2022-12-23T14:35:25.064Z,2.90
2022-12-23T14:38:24.993Z,2.72
2022-12-23T14:41:19.153Z,3.60
2022-12-23T14:43:58.207Z,4.38
2022-12-23T14:46:59.460Z,6.28
2022-12-23T14:49:50.208Z,4.13
2022-12-23T14:52:50.115Z,5.55
2022-12-23T14:55:54.582Z,4.32
2022-12-23T14:58:33.893Z,3.63
2022-12-23T15:01:04.604Z,4.68
2022-12-23T15:03:41.527Z,3.15
2022-12-23T15:06:17.639Z,3.65
2022-12-23T15:08:49.010Z,4.63
2022-12-23T15:11:22.961Z,3.38
2022-12-23T15:13:54.107Z,4.95
2022-12-23T15:16:33.683Z,3.78
2022-12-23T15:19:13.954Z,4.65
2022-12-23T15:21:47.406Z,3.15
2022-12-23T15:24:18.694Z,4.65
2022-12-23T15:27:09.763Z,5.15
2022-12-23T15:29:40.324Z,3.63
2022-12-23T15:32:08.551Z,4.18
2022-12-23T15:34:36.698Z,4.97
2022-12-23T15:37:12.214Z,4.55
2022-12-23T15:39:43.897Z,4.80
2022-12-23T15:42:24.661Z,3.97
2022-12-23T15:44:53.309Z,4.33
2022-12-23T15:47:29.131Z,4.60
2022-12-23T15:49:58.160Z,6.28
2022-12-23T15:52:28.977Z,5.18
2022-12-23T15:55:01.803Z,4.30
2022-12-23T15:57:31.524Z,5.00
2022-12-23T16:00:00.719Z,4.72
2022-12-23T16:05:27.163Z,4.32
2022-12-23T16:08:12.778Z,4.75
2022-12-23T16:10:42.204Z,5.03
2022-12-23T16:13:18.369Z,5.97
2022-12-23T16:15:46.976Z,5.60
2022-12-23T16:18:21.187Z,3.92
2022-12-23T16:20:53.642Z,4.30
2022-12-23T16:23:23.910Z,5.75
2022-12-23T16:25:54.141Z,5.13
2022-12-23T16:28:24.587Z,6.43
2022-12-23T16:30:55.273Z,5.57
2022-12-23T16:33:32.689Z,3.90
2022-12-23T16:36:19.988Z,5.20
2022-12-23T16:38:51.972Z,4.20
2022-12-23T16:41:20.716Z,7.15
2022-12-23T16:43:52.389Z,4.78
2022-12-23T16:46:23.278Z,7.78
2022-12-23T16:48:53.124Z,5.75
2022-12-23T16:51:24.704Z,6.10
2022-12-23T16:53:56.499Z,5.72
2022-12-23T16:56:28.102Z,5.38
2022-12-23T16:58:56.189Z,7.63
2022-12-23T17:01:27.368Z,6.95
2022-12-23T17:03:56.274Z,9.20
2022-12-23T17:06:25.730Z,6.30
2022-12-23T17:08:56.809Z,4.78
2022-12-23T17:11:29.073Z,5.63
2022-12-23T17:14:03.880Z,6.90
2022-12-23T17:16:34.268Z,5.43
2022-12-23T17:19:02.515Z,4.55
2022-12-23T17:21:34.471Z,4.93
2022-12-23T17:24:07.705Z,6.60
2022-12-23T17:26:36.109Z,7.05
2022-12-23T17:29:04.782Z,13.82
2022-12-23T17:31:34.226Z,11.88
2022-12-23T17:34:02.967Z,13.40
2022-12-23T17:36:31.301Z,12.65
2022-12-23T17:38:59.486Z,11.45
2022-12-23T17:41:31.418Z,11.48
2022-12-23T17:44:00.191Z,8.00
2022-12-23T17:46:30.233Z,6.00
2022-12-23T17:48:59.357Z,6.65
2022-12-23T17:51:29.358Z,6.47
2022-12-23T17:53:58.305Z,6.80
2022-12-23T17:56:30.119Z,6.75
2022-12-23T17:58:58.289Z,7.70
2022-12-23T18:01:27.955Z,7.60
2022-12-23T18:03:57.542Z,7.07
2022-12-23T18:06:28.329Z,7.18
2022-12-23T18:08:57.210Z,9.00
2022-12-23T18:11:32.226Z,8.57
2022-12-23T18:14:00.695Z,11.65
2022-12-23T18:16:29.293Z,9.80
2022-12-23T18:18:57.449Z,10.98
2022-12-23T18:21:28.174Z,8.80
2022-12-23T18:23:58.714Z,6.05
2022-12-23T18:26:27.381Z,6.03
2022-12-23T18:28:56.941Z,8.55
2022-12-23T18:31:27.576Z,5.90
2022-12-23T18:33:56.504Z,6.50
2022-12-23T18:36:26.475Z,4.55
2022-12-23T18:38:57.117Z,5.93
2022-12-23T18:41:26.524Z,6.13
2022-12-23T18:43:56.590Z,4.95
2022-12-23T18:46:24.867Z,4.55
2022-12-23T18:48:54.056Z,5.70
2022-12-23T18:51:23.025Z,4.90
2022-12-23T18:53:51.355Z,5.03
2022-12-23T18:56:21.482Z,4.90
2022-12-23T18:58:50.053Z,6.43
2022-12-23T19:01:19.931Z,6.63
2022-12-23T19:03:48.410Z,6.30
2022-12-23T19:06:17.386Z,6.30
2022-12-23T19:08:45.704Z,6.18
2022-12-23T19:11:15.550Z,5.70
2022-12-23T19:13:43.870Z,6.20
2022-12-23T19:16:14.387Z,6.80
2022-12-23T19:18:44.719Z,7.30
2022-12-23T19:21:13.457Z,6.45
2022-12-23T19:23:42.726Z,7.00
2022-12-23T19:26:11.914Z,6.22
2022-12-23T19:28:41.951Z,5.93
2022-12-23T19:31:11.689Z,6.22
2022-12-23T19:33:40.558Z,6.90
2022-12-23T19:36:15.355Z,6.45
2022-12-23T19:38:43.654Z,5.95
2022-12-23T19:41:12.208Z,6.97
2022-12-23T19:43:41.245Z,5.32
2022-12-23T19:46:11.003Z,5.78
2022-12-23T19:48:39.593Z,6.22
2022-12-23T19:51:10.063Z,6.60
2022-12-23T19:53:40.195Z,6.00
2022-12-23T19:56:11.981Z,5.18
2022-12-23T19:58:42.661Z,4.90
2022-12-23T20:01:13.511Z,4.97
2022-12-23T20:03:43.039Z,5.18
2022-12-23T20:06:16.791Z,4.18
2022-12-23T20:08:47.187Z,3.97
2022-12-23T20:11:17.092Z,4.25
2022-12-23T20:13:46.186Z,5.60
2022-12-23T20:16:14.702Z,6.07
2022-12-23T20:18:43.000Z,7.78
2022-12-23T20:21:11.230Z,6.25
2022-12-23T20:23:39.361Z,6.88
2022-12-23T20:26:09.312Z,7.63
2022-12-23T20:28:37.489Z,6.80
2022-12-23T20:31:09.335Z,5.57
2022-12-23T20:33:38.578Z,5.57
2022-12-23T20:36:08.299Z,7.25
2022-12-23T20:38:36.888Z,6.20
2022-12-23T20:41:05.351Z,5.45
2022-12-23T20:43:35.509Z,5.80
2022-12-23T20:46:04.125Z,5.60
2022-12-23T20:48:34.403Z,5.25
2022-12-23T20:51:05.728Z,5.03
2022-12-23T20:53:34.666Z,4.45
2022-12-23T20:56:04.438Z,5.80
2022-12-23T20:58:51.751Z,4.57
2022-12-23T21:01:19.977Z,5.90
2022-12-23T21:03:48.127Z,5.10
2022-12-23T21:06:16.288Z,6.10
2022-12-23T21:08:44.459Z,5.05
2022-12-23T21:11:12.962Z,5.55
2022-12-23T21:13:43.945Z,6.28
2022-12-23T21:16:14.358Z,6.93
2022-12-23T21:18:43.435Z,6.03
2022-12-23T21:21:12.186Z,5.75
2022-12-23T21:23:41.733Z,6.00
2022-12-23T21:26:13.175Z,7.47
2022-12-23T21:28:45.898Z,6.85
2022-12-23T21:31:15.281Z,6.65
2022-12-23T21:33:45.469Z,5.95
2022-12-23T21:36:19.967Z,5.88
2022-12-23T21:38:49.615Z,7.80
2022-12-23T21:41:20.608Z,7.57
2022-12-23T21:43:50.869Z,7.07
2022-12-23T21:46:21.870Z,6.93
2022-12-23T21:48:50.731Z,6.10
2022-12-23T21:51:21.315Z,7.07
2022-12-23T21:53:52.947Z,6.83
2022-12-23T21:56:24.323Z,7.15
2022-12-23T21:58:56.669Z,5.60
2022-12-23T22:01:25.150Z,4.72
2022-12-23T22:03:54.186Z,4.85
2022-12-23T22:06:23.963Z,4.05
2022-12-23T22:08:54.292Z,4.20
2022-12-23T22:11:24.115Z,4.50
2022-12-23T22:13:53.977Z,3.53
2022-12-23T22:16:24.233Z,3.38
2022-12-23T22:18:53.164Z,7.38
2022-12-23T22:21:23.568Z,4.47
2022-12-23T22:23:53.406Z,5.35
2022-12-23T22:26:25.752Z,3.75
2022-12-23T22:28:56.276Z,4.75
2022-12-23T22:31:32.312Z,4.32
2022-12-23T22:34:00.589Z,3.83
2022-12-23T22:36:29.347Z,4.40
2022-12-23T22:38:59.243Z,2.58
2022-12-23T22:41:29.097Z,3.28
2022-12-23T22:43:59.439Z,3.30
2022-12-23T22:46:28.409Z,3.20
2022-12-23T22:48:56.677Z,2.78
2022-12-23T22:51:27.079Z,3.13
2022-12-23T22:53:55.589Z,2.53
2022-12-23T22:56:25.786Z,2.47
2022-12-23T22:58:54.980Z,2.45
2022-12-23T23:01:27.079Z,2.20
2022-12-23T23:03:57.992Z,2.65
2022-12-23T23:06:27.464Z,2.03
2022-12-23T23:08:56.293Z,2.80
2022-12-23T23:11:25.897Z,2.25
2022-12-23T23:13:54.826Z,2.28
2022-12-23T23:16:25.278Z,2.25
2022-12-23T23:18:55.282Z,2.33
2022-12-23T23:21:23.619Z,2.38
2022-12-23T23:23:51.780Z,2.38
2022-12-23T23:26:21.184Z,2.05
2022-12-23T23:28:49.697Z,2.30
2022-12-23T23:31:44.663Z,1.67
2022-12-23T23:34:07.330Z,2.08
2022-12-23T23:36:35.747Z,2.10
2022-12-23T23:39:03.972Z,3.63
2022-12-23T23:41:32.172Z,2.10
2022-12-23T23:44:00.427Z,2.63
2022-12-23T23:46:29.021Z,1.60
2022-12-23T23:48:57.229Z,2.05
2022-12-23T23:51:27.235Z,1.75
2022-12-23T23:53:55.530Z,1.60
2022-12-23T23:56:26.277Z,1.85
2022-12-23T23:58:55.981Z,1.48
